Station Historical Data
Daily Summary for November 29, 2017 Units:  Metric    English   Both
« Previous Day
Next Day »
Daily Weekly Monthly Yearly Custom
  High: Low: Average:
Temperature: 14 °C -1.9 °C 5.2 °C
Dew Point: 4.8 °C -4.7 °C -0.9 °C
Humidity: 82% 44% 66%
Wind Speed: 37km/h 0km/h 6.9km/h
Wind Gust: 43.5km/h - -
Wind- - West
Pressure: 1028 hPa 1013.4 hPa -
Precipitation: 0 mm    
Historical Graphs
 
 
Tabular Data for November 29, 2017
Time Temperature Dew Point Pressure Wind Wind Speed Wind Gust Humidity Rainfall Rate (Hourly)
00:04 14 °C 1.9 °C 1013.4 hPa South 19.3 km/h 37 km/h 44% 0 mm
00:09 13.9 °C 2.2 °C 1013.4 hPa WSW 20.9 km/h 40.2 km/h 45% 0 mm
00:14 13.9 °C 2.2 °C 1013.4 hPa SW 37 km/h 41.8 km/h 45% 0 mm
00:19 13.8 °C 2.3 °C 1013.4 hPa SW 27.4 km/h 37 km/h 46% 0 mm
00:29 13.6 °C 2.4 °C 1013.4 hPa WSW 22.5 km/h 35.4 km/h 47% 0 mm
00:39 13.4 °C 2.6 °C 1013.8 hPa WSW 20.9 km/h 43.5 km/h 48% 0 mm
00:44 13.3 °C 2.8 °C 1013.4 hPa WSW 20.9 km/h 43.5 km/h 49% 0 mm
00:49 13.2 °C 2.9 °C 1013.4 hPa WSW 19.3 km/h 43.5 km/h 50% 0 mm
00:54 13.2 °C 2.9 °C 1013.8 hPa SW 14.5 km/h 33.8 km/h 50% 0 mm
00:59 13.1 °C 3.2 °C 1013.8 hPa SSE 29 km/h 40.2 km/h 51% 0 mm
01:04 12.9 °C 3.3 °C 1014.1 hPa WSW 19.3 km/h 32.2 km/h 52% 0 mm
01:19 12.2 °C 3.9 °C 1014.1 hPa West 11.3 km/h 30.6 km/h 57% 0 mm
01:24 12.1 °C 4.1 °C 1014.1 hPa West 9.7 km/h 33.8 km/h 58% 0 mm
01:29 12.1 °C 4.3 °C 1014.1 hPa SW 22.5 km/h 30.6 km/h 59% 0 mm
01:34 12 °C 4.4 °C 1014.1 hPa SW 24.1 km/h 29 km/h 60% 0 mm
01:39 12 °C 4.4 °C 1014.4 hPa WSW 14.5 km/h 32.2 km/h 60% 0 mm
01:44 12 °C 4.4 °C 1014.4 hPa WSW 16.1 km/h 32.2 km/h 60% 0 mm
01:49 12 °C 4.7 °C 1014.4 hPa WSW 16.1 km/h 32.2 km/h 61% 0 mm
01:59 11.8 °C 4.6 °C 1014.8 hPa WSW 12.9 km/h 24.1 km/h 61% 0 mm
02:04 11.8 °C 4.5 °C 1014.8 hPa WNW 17.7 km/h 22.5 km/h 61% 0 mm
02:09 11.7 °C 4.4 °C 1014.8 hPa WSW 12.9 km/h 22.5 km/h 61% 0 mm
02:14 11.7 °C 4.6 °C 1014.8 hPa WSW 6.4 km/h 24.1 km/h 62% 0 mm
02:49 11.2 °C 4.7 °C 1015.1 hPa WSW 11.3 km/h 20.9 km/h 64% 0 mm
02:54 11.2 °C 4.6 °C 1015.1 hPa WSW 11.3 km/h 20.9 km/h 64% 0 mm
03:04 11.1 °C 4.7 °C 1015.1 hPa West 9.7 km/h 16.1 km/h 65% 0 mm
03:09 11 °C 4.7 °C 1015.5 hPa WSW 9.7 km/h 20.9 km/h 65% 0 mm
03:14 10.9 °C 4.6 °C 1015.5 hPa WSW 9.7 km/h 20.9 km/h 65% 0 mm
03:19 10.8 °C 4.7 °C 1015.5 hPa WSW 3.2 km/h 22.5 km/h 66% 0 mm
03:24 10.7 °C 4.6 °C 1015.5 hPa SW 9.7 km/h 12.9 km/h 66% 0 mm
03:29 10.4 °C 4.6 °C 1015.5 hPa WSW 6.4 km/h 11.3 km/h 67% 0 mm
03:39 9.9 °C 4.7 °C 1015.5 hPa West 9.7 km/h 12.9 km/h 70% 0 mm
03:44 9.8 °C 4.8 °C 1015.8 hPa WSW 6.4 km/h 12.9 km/h 71% 0 mm
03:49 9.7 °C 4.7 °C 1015.8 hPa WSW 8 km/h 14.5 km/h 71% 0 mm
03:54 9.6 °C 4.8 °C 1015.8 hPa WSW 8 km/h 14.5 km/h 72% 0 mm
03:59 9.5 °C 4.5 °C 1015.8 hPa WSW 6.4 km/h 14.5 km/h 71% 0 mm
04:04 9.4 °C 4.4 °C 1015.8 hPa West 8 km/h 17.7 km/h 71% 0 mm
04:09 9.4 °C 4.4 °C 1016.1 hPa West 6.4 km/h 20.9 km/h 71% 0 mm
04:14 9.4 °C 4.2 °C 1016.1 hPa West 9.7 km/h 24.1 km/h 70% 0 mm
04:24 9.2 °C 3.8 °C 1016.5 hPa West 11.3 km/h 20.9 km/h 69% 0 mm
04:29 9.1 °C 3.7 °C 1016.5 hPa West 8 km/h 19.3 km/h 69% 0 mm
04:34 8.8 °C 3.2 °C 1016.5 hPa WNW 9.7 km/h 19.3 km/h 68% 0 mm
04:39 8.7 °C 2.9 °C 1016.8 hPa West 14.5 km/h 19.3 km/h 67% 0 mm
04:44 8.7 °C 2.7 °C 1016.8 hPa West 11.3 km/h 27.4 km/h 66% 0 mm
04:49 8.6 °C 2.3 °C 1016.5 hPa West 11.3 km/h 27.4 km/h 65% 0 mm
04:59 8.4 °C 2.2 °C 1016.5 hPa West 9.7 km/h 19.3 km/h 65% 0 mm
05:09 8.2 °C 1.8 °C 1016.8 hPa West 8 km/h 17.7 km/h 64% 0 mm
05:19 8 °C 2.1 °C 1017.2 hPa West 8 km/h 17.7 km/h 66% 0 mm
05:24 7.9 °C 2 °C 1017.2 hPa West 3.2 km/h 17.7 km/h 66% 0 mm
05:29 7.9 °C 1.9 °C 1017.2 hPa West 11.3 km/h 19.3 km/h 66% 0 mm
05:34 7.8 °C 2.1 °C 1017.2 hPa West 4.8 km/h 19.3 km/h 67% 0 mm
05:39 7.8 °C 1.8 °C 1017.5 hPa WNW 12.9 km/h 16.1 km/h 66% 0 mm
05:44 7.7 °C 1.3 °C 1017.5 hPa West 12.9 km/h 24.1 km/h 64% 0 mm
06:04 7.3 °C 0.9 °C 1017.8 hPa NW 9.7 km/h 17.7 km/h 64% 0 mm
06:09 7.2 °C 0.8 °C 1017.8 hPa WSW 6.4 km/h 14.5 km/h 64% 0 mm
06:14 7.1 °C 0.8 °C 1018.2 hPa West 6.4 km/h 19.3 km/h 64% 0 mm
06:19 7.1 °C 0.7 °C 1018.2 hPa West 6.4 km/h 17.7 km/h 64% 0 mm
06:24 7 °C 0.7 °C 1018.2 hPa West 8 km/h 24.1 km/h 64% 0 mm
06:29 6.9 °C 0.4 °C 1018.5 hPa West 11.3 km/h 17.7 km/h 63% 0 mm
06:34 6.8 °C 0.3 °C 1018.5 hPa West 9.7 km/h 17.7 km/h 63% 0 mm
06:39 6.7 °C 0.2 °C 1018.5 hPa WNW 8 km/h 19.3 km/h 63% 0 mm
06:44 6.7 °C 0.3 °C 1018.5 hPa WSW 4.8 km/h 17.7 km/h 64% 0 mm
06:54 6.4 °C 0.1 °C 1018.8 hPa West 9.7 km/h 20.9 km/h 64% 0 mm
07:09 6.2 °C -0.3 °C 1019.5 hPa WNW 9.7 km/h 19.3 km/h 63% 0 mm
07:14 6.2 °C -0.6 °C 1019.5 hPa WNW 9.7 km/h 22.5 km/h 62% 0 mm
07:19 6.1 °C -0.6 °C 1019.5 hPa WNW 16.1 km/h 20.9 km/h 62% 0 mm
07:24 6.1 °C -0.6 °C 1019.9 hPa West 11.3 km/h 24.1 km/h 62% 0 mm
07:39 5.8 °C -0.7 °C 1019.9 hPa West 16.1 km/h 19.3 km/h 63% 0 mm
07:54 5.8 °C -0.5 °C 1020.5 hPa WNW 9.7 km/h 19.3 km/h 64% 0 mm
07:59 5.8 °C -0.2 °C 1020.5 hPa WNW 9.7 km/h 22.5 km/h 65% 0 mm
08:04 5.9 °C -0.2 °C 1020.9 hPa WNW 11.3 km/h 24.1 km/h 65% 0 mm
08:09 5.9 °C -0.3 °C 1021.2 hPa WNW 3.2 km/h 16.1 km/h 64% 0 mm
08:14 5.9 °C -0.2 °C 1021.2 hPa NW 8 km/h 17.7 km/h 65% 0 mm
08:19 6 °C -0.1 °C 1021.2 hPa West 9.7 km/h 20.9 km/h 65% 0 mm
08:24 6.1 °C -0.1 °C 1021.2 hPa WNW 9.7 km/h 20.9 km/h 65% 0 mm
08:29 6.1 °C -0.1 °C 1021.6 hPa WNW 9.7 km/h 16.1 km/h 65% 0 mm
08:34 6.1 °C 0.2 °C 1021.6 hPa WNW 8 km/h 14.5 km/h 66% 0 mm
08:44 6.3 °C 0.2 °C 1021.6 hPa West 9.7 km/h 17.7 km/h 65% 0 mm
08:49 6.3 °C 0.2 °C 1021.9 hPa WNW 12.9 km/h 17.7 km/h 65% 0 mm
08:54 6.5 °C 0.4 °C 1021.9 hPa West 9.7 km/h 17.7 km/h 65% 0 mm
08:59 6.6 °C 0.2 °C 1021.9 hPa WNW 9.7 km/h 17.7 km/h 64% 0 mm
09:19 6.8 °C 0.2 °C 1022.2 hPa West 12.9 km/h 24.1 km/h 63% 0 mm
09:24 6.8 °C 0.2 °C 1022.2 hPa West 12.9 km/h 25.7 km/h 63% 0 mm
09:29 6.9 °C 0.3 °C 1022.6 hPa WNW 12.9 km/h 25.7 km/h 63% 0 mm
09:34 7.1 °C 0.5 °C 1022.6 hPa WNW 11.3 km/h 22.5 km/h 63% 0 mm
09:39 7.1 °C 0.6 °C 1022.6 hPa WNW 9.7 km/h 22.5 km/h 63% 0 mm
09:44 7.2 °C 0.4 °C 1022.6 hPa WNW 14.5 km/h 25.7 km/h 62% 0 mm
09:49 7.2 °C 0.4 °C 1022.9 hPa West 14.5 km/h 20.9 km/h 62% 0 mm
09:54 7.2 °C 0.2 °C 1022.9 hPa WNW 19.3 km/h 25.7 km/h 61% 0 mm
09:59 7.4 °C 0.4 °C 1023.2 hPa WNW 11.3 km/h 25.7 km/h 61% 0 mm
10:04 7.3 °C -0.2 °C 1023.2 hPa WNW 11.3 km/h 25.7 km/h 59% 0 mm
10:09 7.6 °C 0.1 °C 1023.6 hPa NW 11.3 km/h 19.3 km/h 59% 0 mm
10:14 7.5 °C 0 °C 1023.6 hPa West 6.4 km/h 25.7 km/h 59% 0 mm
10:29 7.7 °C 0.2 °C 1023.9 hPa NW 9.7 km/h 22.5 km/h 59% 0 mm
10:39 7.4 °C -0.1 °C 1024.3 hPa WNW 11.3 km/h 24.1 km/h 59% 0 mm
10:44 7.6 °C 0.3 °C 1024.3 hPa WNW 11.3 km/h 24.1 km/h 60% 0 mm
10:49 7.3 °C -0.2 °C 1024.3 hPa NW 20.9 km/h 27.4 km/h 59% 0 mm
10:54 6.8 °C -0.7 °C 1024.6 hPa NNW 3.2 km/h 32.2 km/h 59% 0 mm
10:59 6.7 °C -0.8 °C 1024.6 hPa NW 11.3 km/h 32.2 km/h 59% 0 mm
11:09 6.6 °C -1.1 °C 1024.6 hPa NNW 14.5 km/h 22.5 km/h 58% 0 mm
11:14 6.6 °C -1.1 °C 1024.6 hPa NW 14.5 km/h 24.1 km/h 58% 0 mm
11:19 6.9 °C -0.8 °C 1024.6 hPa NW 8 km/h 22.5 km/h 58% 0 mm
11:24 7.2 °C -0.8 °C 1024.6 hPa NW 8 km/h 20.9 km/h 57% 0 mm
11:34 6.9 °C -0.8 °C 1024.9 hPa WNW 8 km/h 22.5 km/h 58% 0 mm
11:39 6.7 °C -0.7 °C 1024.9 hPa NW 6.4 km/h 22.5 km/h 59% 0 mm
11:59 6.2 °C -0.6 °C 1024.9 hPa WNW 4.8 km/h 17.7 km/h 62% 0 mm
12:04 6.1 °C -0.7 °C 1024.9 hPa NW 16.1 km/h 22.5 km/h 62% 0 mm
12:09 6 °C -0.7 °C 1024.9 hPa North 4.8 km/h 20.9 km/h 62% 0 mm
12:14 5.8 °C -1.1 °C 1025.3 hPa NW 17.7 km/h 19.3 km/h 61% 0 mm
12:24 5.7 °C -1 °C 1025.3 hPa NW 16.1 km/h 17.7 km/h 62% 0 mm
12:34 5.8 °C -1.1 °C 1025.6 hPa NW 8 km/h 19.3 km/h 61% 0 mm
12:39 5.6 °C -1.4 °C 1025.6 hPa NNW 9.7 km/h 19.3 km/h 61% 0 mm
12:44 5.4 °C -1.3 °C 1025.6 hPa NNW 9.7 km/h 19.3 km/h 62% 0 mm
12:49 5.6 °C -1.1 °C 1025.6 hPa North 4.8 km/h 22.5 km/h 62% 0 mm
12:54 5.4 °C -1.3 °C 1025.6 hPa NW 4.8 km/h 16.1 km/h 62% 0 mm
13:04 5.3 °C -1.4 °C 1025.6 hPa NNW 8 km/h 16.1 km/h 62% 0 mm
13:14 5.3 °C -1.4 °C 1025.6 hPa WNW 6.4 km/h 14.5 km/h 62% 0 mm
13:19 5.3 °C -1.4 °C 1025.6 hPa NW 4.8 km/h 17.7 km/h 62% 0 mm
13:24 5.5 °C -1.4 °C 1026 hPa WNW 6.4 km/h 16.1 km/h 61% 0 mm
13:34 5.4 °C -1.7 °C 1026 hPa NW 8 km/h 20.9 km/h 60% 0 mm
13:49 5.4 °C -1.6 °C 1026 hPa WNW 8 km/h 11.3 km/h 61% 0 mm
13:54 5.7 °C -1.4 °C 1026 hPa WNW 9.7 km/h 14.5 km/h 60% 0 mm
13:59 5.7 °C -1.5 °C 1026 hPa West 11.3 km/h 14.5 km/h 60% 0 mm
14:04 5.4 °C -1.8 °C 1026 hPa WNW 8 km/h 16.1 km/h 60% 0 mm
14:09 5.1 °C -1.8 °C 1026 hPa WNW 11.3 km/h 17.7 km/h 61% 0 mm
14:14 5.5 °C -1.7 °C 1026 hPa NNW 3.2 km/h 14.5 km/h 60% 0 mm
14:19 5.3 °C -1.8 °C 1026 hPa West 8 km/h 12.9 km/h 60% 0 mm
14:24 5.6 °C -1.6 °C 1026 hPa NW 8 km/h 12.9 km/h 60% 0 mm
14:29 5.8 °C -1.8 °C 1026 hPa WNW 6.4 km/h 14.5 km/h 58% 0 mm
14:49 5.5 °C -1.9 °C 1026 hPa WNW 6.4 km/h 8 km/h 59% 0 mm
14:59 5.2 °C -2.4 °C 1026 hPa NW 4.8 km/h 9.7 km/h 58% 0 mm
15:09 5.6 °C -2.7 °C 1026.3 hPa NW 4.8 km/h 9.7 km/h 55% 0 mm
15:24 5.3 °C -2.7 °C 1026.3 hPa NNW 1.6 km/h 6.4 km/h 56% 0 mm
15:29 5.3 °C -2.7 °C 1026.3 hPa North 1.6 km/h 4.8 km/h 56% 0 mm
15:34 5.2 °C -2.8 °C 1026.3 hPa North 4.8 km/h 6.4 km/h 56% 0 mm
15:39 5.1 °C -3.2 °C 1026.3 hPa North 3.2 km/h 6.4 km/h 55% 0 mm
15:44 5 °C -2.8 °C 1026.6 hPa NW 3.2 km/h 9.7 km/h 57% 0 mm
15:49 4.9 °C -2.9 °C 1026.6 hPa NW 3.2 km/h 9.7 km/h 57% 0 mm
15:54 4.9 °C -3.2 °C 1026.6 hPa Calm   3.2 km/h 56% 0 mm
16:04 4.5 °C -3.6 °C 1026.6 hPa NW 1.6 km/h 6.4 km/h 56% 0 mm
16:24 3.9 °C -3.3 °C 1027 hPa Calm     59% 0 mm
16:29 3.9 °C -3.6 °C 1027 hPa Calm     58% 0 mm
16:34 3.8 °C -3.4 °C 1026.6 hPa Calm     59% 0 mm
16:39 3.7 °C -3.6 °C 1026.6 hPa Calm     59% 0 mm
16:44 3.6 °C -3.5 °C 1027 hPa Calm     60% 0 mm
16:49 3.4 °C -3.6 °C 1027 hPa NW 4.8 km/h 4.8 km/h 60% 0 mm
16:54 3.3 °C -3.5 °C 1027 hPa Calm   4.8 km/h 61% 0 mm
16:59 3.2 °C -3.6 °C 1027 hPa Calm     61% 0 mm
17:04 3.1 °C -3.7 °C 1027 hPa Calm     61% 0 mm
17:14 2.7 °C -3.6 °C 1027 hPa Calm     63% 0 mm
17:19 2.4 °C -3.7 °C 1027 hPa Calm     64% 0 mm
17:24 2.4 °C -3.7 °C 1027 hPa Calm     64% 0 mm
17:29 2.3 °C -3.8 °C 1027.3 hPa Calm     64% 0 mm
17:34 2.2 °C -3.7 °C 1027.3 hPa Calm     65% 0 mm
17:39 1.9 °C -3.7 °C 1027.3 hPa Calm     66% 0 mm
17:44 1.9 °C -3.7 °C 1027.3 hPa Calm     66% 0 mm
17:49 1.8 °C -3.9 °C 1027.3 hPa Calm     66% 0 mm
17:54 1.6 °C -3.9 °C 1027.3 hPa Calm     67% 0 mm
17:59 1.4 °C -3.9 °C 1027.3 hPa Calm     68% 0 mm
18:04 1.4 °C -3.9 °C 1027.7 hPa Calm     68% 0 mm
18:09 1.2 °C -4.1 °C 1027.7 hPa Calm     68% 0 mm
18:14 1.1 °C -4 °C 1027.7 hPa Calm     69% 0 mm
18:19 0.9 °C -4.1 °C 1027.7 hPa Calm     69% 0 mm
18:24 0.8 °C -4 °C 1027.7 hPa Calm     70% 0 mm
18:29 0.8 °C -4.1 °C 1027.7 hPa Calm     70% 0 mm
18:34 0.6 °C -4.1 °C 1027.7 hPa Calm     71% 0 mm
18:39 0.4 °C -4.2 °C 1028 hPa Calm     71% 0 mm
18:44 0.3 °C -4.1 °C 1028 hPa Calm     72% 0 mm
18:49 0.1 °C -4.3 °C 1028 hPa Calm     72% 0 mm
18:54 0.1 °C -4.2 °C 1027.7 hPa Calm     73% 0 mm
18:59 0 °C -4.1 °C 1027.7 hPa Calm     74% 0 mm
19:04 -0.2 °C -4.2 °C 1027.7 hPa Calm     74% 0 mm
19:09 -0.3 °C -4.3 °C 1027.7 hPa Calm     74% 0 mm
19:14 -0.4 °C -4.3 °C 1027.7 hPa Calm     75% 0 mm
19:19 -0.6 °C -4.5 °C 1027.7 hPa Calm     75% 0 mm
19:24 -0.6 °C -4.3 °C 1027.7 hPa Calm     76% 0 mm
19:39 0.3 °C -3.8 °C 1027.7 hPa Calm     74% 0 mm
19:54 -0.3 °C -4.2 °C 1027.7 hPa Calm     75% 0 mm
19:59 -0.6 °C -4.5 °C 1027.7 hPa Calm     75% 0 mm
20:04 -0.6 °C -4.2 °C 1027.7 hPa Calm     77% 0 mm
20:09 -0.4 °C -4.2 °C 1027.7 hPa Calm     76% 0 mm
20:14 -0.7 °C -4.4 °C 1027.3 hPa Calm     76% 0 mm
20:19 -0.8 °C -4.3 °C 1027.7 hPa Calm     77% 0 mm
20:24 -0.6 °C -4.1 °C 1027.7 hPa Calm     77% 0 mm
20:29 -0.3 °C -3.9 °C 1027.3 hPa Calm   1.6 km/h 77% 0 mm
20:34 -0.2 °C -3.9 °C 1027.3 hPa Calm     76% 0 mm
20:39 -0.3 °C -4 °C 1027.3 hPa Calm     76% 0 mm
20:44 -0.4 °C -4.1 °C 1027.3 hPa Calm     76% 0 mm
20:49 -0.4 °C -4 °C 1027.3 hPa Calm     77% 0 mm
20:54 -0.6 °C -4.1 °C 1027.7 hPa Calm     77% 0 mm
20:59 -0.7 °C -4.3 °C 1027.3 hPa Calm     77% 0 mm
21:09 -0.9 °C -4.3 °C 1027.3 hPa Calm     78% 0 mm
21:19 -1.1 °C -4.4 °C 1027.3 hPa Calm     78% 0 mm
21:29 -1.1 °C -4.4 °C 1027.3 hPa Calm     78% 0 mm
21:34 -1.1 °C -4.2 °C 1027.3 hPa Calm     79% 0 mm
21:39 -1.1 °C -4.3 °C 1027.3 hPa Calm     79% 0 mm
21:44 -1.1 °C -4.3 °C 1027 hPa Calm     79% 0 mm
21:49 -1.2 °C -4.4 °C 1027.3 hPa Calm     79% 0 mm
21:54 -1.3 °C -4.4 °C 1027 hPa Calm   1.6 km/h 79% 0 mm
21:59 -1.3 °C -4.5 °C 1027 hPa Calm   4.8 km/h 79% 0 mm
22:04 -1.4 °C -4.4 °C 1027 hPa Calm   1.6 km/h 80% 0 mm
22:09 -1.4 °C -4.4 °C 1026.6 hPa Calm   3.2 km/h 80% 0 mm
22:14 -1.4 °C -4.4 °C 1026.6 hPa Calm     80% 0 mm
22:34 -1.6 °C -4.6 °C 1026.3 hPa Calm     80% 0 mm
22:44 -1.7 °C -4.5 °C 1026.3 hPa Calm   3.2 km/h 81% 0 mm
22:49 -1.8 °C -4.6 °C 1026 hPa Calm     81% 0 mm
22:59 -1.7 °C -4.6 °C 1025.6 hPa ESE 1.6 km/h 8 km/h 81% 0 mm
23:04 -1.7 °C -4.6 °C 1025.6 hPa East 1.6 km/h 8 km/h 81% 0 mm
23:09 -1.8 °C -4.6 °C 1025.6 hPa Calm   8 km/h 81% 0 mm
23:14 -1.8 °C -4.5 °C 1025.6 hPa Calm   4.8 km/h 82% 0 mm
23:24 -1.8 °C -4.5 °C 1025.6 hPa SE 1.6 km/h 6.4 km/h 82% 0 mm
23:29 -1.8 °C -4.7 °C 1025.6 hPa Calm   6.4 km/h 81% 0 mm
23:34 -1.9 °C -4.7 °C 1025.3 hPa Calm   4.8 km/h 81% 0 mm
23:39 -1.9 °C -4.7 °C 1025.3 hPa ESE 1.6 km/h 4.8 km/h 81% 0 mm
23:44 -1.8 °C -4.7 °C 1024.9 hPa ESE 3.2 km/h 9.7 km/h 81% 0 mm
23:54 -1.9 °C -4.7 °C 1024.6 hPa East 3.2 km/h 9.7 km/h 81% 0 mm
23:59 -1.8 °C -4.7 °C 1024.6 hPa SE 1.6 km/h 11.3 km/h 81% 0 mm
Buffalo, New York, USA
Compliments of Weather Underground - 2 mb